createdAt,value
2023-12-14T00:01:20.112Z,9.25
2023-12-14T00:03:47.888Z,8.75
2023-12-14T00:06:15.865Z,9.68
2023-12-14T00:08:43.646Z,9.00
2023-12-14T00:11:13.003Z,8.70
2023-12-14T00:13:40.769Z,8.18
2023-12-14T00:16:08.963Z,9.93
2023-12-14T00:18:37.417Z,10.75
2023-12-14T00:21:05.384Z,8.70
2023-12-14T00:23:34.752Z,8.05
2023-12-14T00:26:02.173Z,8.82
2023-12-14T00:28:32.222Z,11.70
2023-12-14T00:31:01.666Z,9.48
2023-12-14T00:33:29.387Z,11.70
2023-12-14T00:35:57.943Z,9.50
2023-12-14T00:38:25.469Z,9.15
2023-12-14T00:40:53.006Z,8.00
2023-12-14T00:43:20.431Z,9.52
2023-12-14T00:45:47.760Z,7.60
2023-12-14T00:48:15.641Z,9.35
2023-12-14T00:50:43.226Z,8.82
2023-12-14T00:53:10.671Z,10.82
2023-12-14T00:55:38.225Z,9.65
2023-12-14T00:58:05.484Z,9.38
2023-12-14T01:00:32.784Z,8.93
2023-12-14T01:03:00.113Z,7.93
2023-12-14T01:05:27.544Z,9.23
2023-12-14T01:07:54.926Z,8.75
2023-12-14T01:10:22.493Z,8.30
2023-12-14T01:12:49.906Z,9.57
2023-12-14T01:15:17.545Z,7.90
2023-12-14T01:17:44.950Z,9.50
2023-12-14T01:20:12.773Z,9.55
2023-12-14T01:22:40.172Z,8.80
2023-12-14T01:25:07.925Z,8.63
2023-12-14T01:27:35.209Z,8.18
2023-12-14T01:30:02.480Z,7.72
2023-12-14T01:32:29.767Z,7.07
2023-12-14T01:34:57.195Z,7.78
2023-12-14T01:37:24.543Z,8.73
2023-12-14T01:39:51.995Z,9.60
2023-12-14T01:42:19.306Z,7.65
2023-12-14T01:44:46.579Z,7.65
2023-12-14T01:47:13.887Z,7.07
2023-12-14T01:49:42.767Z,7.63
2023-12-14T01:52:10.222Z,8.15
2023-12-14T01:54:37.808Z,8.52
2023-12-14T01:57:05.424Z,7.95
2023-12-14T01:59:32.873Z,7.97
2023-12-14T02:02:00.756Z,7.95
2023-12-14T02:04:28.571Z,7.25
2023-12-14T02:06:55.943Z,7.68
2023-12-14T02:09:23.212Z,7.03
2023-12-14T02:11:50.666Z,8.25
2023-12-14T02:14:18.197Z,7.97
2023-12-14T02:16:45.582Z,9.13
2023-12-14T02:19:13.007Z,7.57
2023-12-14T02:21:40.381Z,8.38
2023-12-14T02:24:07.727Z,7.15
2023-12-14T02:26:35.029Z,7.60
2023-12-14T02:29:02.499Z,8.10
2023-12-14T02:31:29.798Z,8.00
2023-12-14T02:33:57.221Z,7.63
2023-12-14T02:36:24.707Z,8.70
2023-12-14T02:38:52.240Z,6.85
2023-12-14T02:41:19.592Z,7.93
2023-12-14T02:43:47.076Z,8.27
2023-12-14T02:46:16.619Z,7.57
2023-12-14T02:48:44.704Z,8.95
2023-12-14T02:51:16.197Z,6.65
2023-12-14T02:53:43.709Z,7.63
2023-12-14T02:56:12.339Z,8.18
2023-12-14T02:58:40.072Z,7.60
2023-12-14T03:01:07.571Z,8.23
2023-12-14T03:03:35.197Z,8.07
2023-12-14T03:06:02.536Z,9.68
2023-12-14T03:08:29.999Z,6.63
2023-12-14T03:10:57.460Z,7.20
2023-12-14T03:13:24.829Z,8.02
2023-12-14T03:15:52.319Z,7.63
2023-12-14T03:18:19.756Z,7.70
2023-12-14T03:20:47.297Z,8.70
2023-12-14T03:23:14.704Z,7.85
2023-12-14T03:25:42.239Z,6.68
2023-12-14T03:28:10.500Z,8.52
2023-12-14T03:30:37.846Z,7.30
2023-12-14T03:33:08.379Z,7.25
2023-12-14T03:35:37.288Z,7.28
2023-12-14T03:38:04.789Z,9.02
2023-12-14T03:40:32.162Z,7.88
2023-12-14T03:42:59.517Z,6.80
2023-12-14T03:45:26.795Z,8.50
2023-12-14T03:47:55.389Z,8.43
2023-12-14T03:50:22.906Z,9.05
2023-12-14T03:52:50.798Z,8.57
2023-12-14T03:55:18.202Z,7.68
2023-12-14T03:57:45.710Z,7.25
2023-12-14T04:00:14.448Z,7.10
2023-12-14T04:02:42.141Z,7.20
2023-12-14T04:05:10.416Z,8.15
2023-12-14T04:07:41.643Z,8.85
2023-12-14T04:10:13.424Z,8.23
2023-12-14T04:12:41.183Z,9.80
2023-12-14T04:15:10.529Z,7.65
2023-12-14T04:17:37.907Z,8.32
2023-12-14T04:20:07.518Z,7.05
2023-12-14T04:22:35.717Z,7.88
2023-12-14T04:25:03.148Z,7.82
2023-12-14T04:27:31.326Z,7.22
2023-12-14T04:29:58.733Z,8.90
2023-12-14T04:32:26.938Z,7.57
2023-12-14T04:34:54.451Z,10.10
2023-12-14T04:37:21.869Z,8.55
2023-12-14T04:39:49.242Z,7.45
2023-12-14T04:42:16.570Z,6.50
2023-12-14T04:44:43.961Z,8.90
2023-12-14T04:47:11.290Z,7.43
2023-12-14T04:49:38.759Z,7.28
2023-12-14T04:52:06.606Z,6.78
2023-12-14T04:54:34.455Z,8.02
2023-12-14T04:57:01.873Z,7.95
2023-12-14T04:59:29.187Z,7.30
2023-12-14T05:01:56.563Z,8.32
2023-12-14T05:04:23.951Z,6.82
2023-12-14T05:06:51.353Z,7.65
2023-12-14T05:09:18.667Z,7.88
2023-12-14T05:11:46.118Z,8.27
2023-12-14T05:14:13.460Z,7.55
2023-12-14T05:16:40.877Z,6.80
2023-12-14T05:19:08.484Z,6.75
2023-12-14T05:21:35.962Z,7.55
2023-12-14T05:24:04.076Z,6.38
2023-12-14T05:26:31.546Z,6.03
2023-12-14T05:28:58.826Z,6.75
2023-12-14T05:31:26.170Z,6.75
2023-12-14T05:33:53.589Z,5.50
2023-12-14T05:36:20.956Z,5.50
2023-12-14T05:38:50.928Z,6.40
2023-12-14T05:41:18.348Z,6.72
2023-12-14T05:43:45.696Z,7.07
2023-12-14T05:46:24.742Z,6.05
2023-12-14T05:48:52.609Z,5.65
2023-12-14T05:51:33.340Z,5.78
2023-12-14T05:54:01.178Z,5.15
2023-12-14T05:56:28.637Z,6.35
2023-12-14T05:58:56.153Z,6.47
2023-12-14T06:01:25.412Z,6.03
2023-12-14T06:03:52.908Z,6.18
2023-12-14T06:06:20.470Z,6.95
2023-12-14T06:08:47.958Z,5.57
2023-12-14T06:11:15.299Z,5.70
2023-12-14T06:13:42.765Z,5.93
2023-12-14T06:16:13.918Z,7.07
2023-12-14T06:18:44.763Z,5.00
2023-12-14T06:21:12.841Z,6.00
2023-12-14T06:23:40.449Z,6.43
2023-12-14T06:26:08.104Z,8.40
2023-12-14T06:28:35.480Z,5.28
2023-12-14T06:31:02.992Z,5.22
2023-12-14T06:33:30.628Z,5.07
2023-12-14T06:35:58.865Z,5.75
2023-12-14T06:38:26.189Z,5.93
2023-12-14T06:40:53.488Z,5.38
2023-12-14T06:43:20.824Z,4.60
2023-12-14T06:45:48.144Z,5.20
2023-12-14T06:48:15.650Z,5.22
2023-12-14T06:50:44.183Z,5.68
2023-12-14T06:53:12.712Z,5.28
2023-12-14T06:55:40.053Z,5.85
2023-12-14T06:58:12.277Z,5.30
2023-12-14T07:00:39.779Z,7.13
2023-12-14T07:03:07.226Z,5.82
2023-12-14T07:05:34.782Z,5.38
2023-12-14T07:08:02.265Z,5.15
2023-12-14T07:10:29.636Z,4.82
2023-12-14T07:12:57.080Z,5.97
2023-12-14T07:15:24.952Z,4.95
2023-12-14T07:17:52.366Z,5.47
2023-12-14T07:20:19.778Z,5.45
2023-12-14T07:22:47.156Z,5.00
2023-12-14T07:25:14.597Z,5.82
2023-12-14T07:27:43.177Z,5.03
2023-12-14T07:30:12.246Z,6.13
2023-12-14T07:32:40.312Z,5.80
2023-12-14T07:35:08.262Z,6.10
2023-12-14T07:37:36.268Z,5.35
2023-12-14T07:40:05.119Z,5.45
2023-12-14T07:42:33.275Z,5.50
2023-12-14T07:45:00.905Z,6.40
2023-12-14T07:47:28.543Z,8.20
2023-12-14T07:49:55.939Z,5.32
2023-12-14T07:52:23.327Z,5.28
2023-12-14T07:54:50.603Z,6.70
2023-12-14T07:57:18.559Z,5.45
2023-12-14T07:59:47.525Z,5.10
2023-12-14T08:02:15.002Z,6.07
2023-12-14T08:04:42.488Z,6.22
2023-12-14T08:07:09.852Z,6.07
2023-12-14T08:09:37.198Z,5.53
2023-12-14T08:12:04.892Z,6.55
2023-12-14T08:14:35.160Z,5.75
2023-12-14T08:17:02.900Z,5.80
2023-12-14T08:19:30.474Z,7.43
2023-12-14T08:21:57.848Z,5.97
2023-12-14T08:24:25.106Z,5.68
2023-12-14T08:26:52.549Z,5.70
2023-12-14T08:29:20.030Z,6.28
2023-12-14T08:31:47.608Z,6.30
2023-12-14T08:34:15.876Z,6.28
2023-12-14T08:36:43.382Z,9.27
2023-12-14T08:39:10.762Z,11.43
2023-12-14T08:41:38.042Z,12.13
2023-12-14T08:44:05.327Z,11.82
2023-12-14T08:46:43.206Z,12.73
2023-12-14T08:49:11.731Z,12.98
2023-12-14T08:51:39.342Z,14.25
2023-12-14T08:54:07.420Z,14.57
2023-12-14T08:56:34.780Z,13.02
2023-12-14T08:59:05.047Z,13.82
2023-12-14T09:01:32.580Z,13.07
2023-12-14T09:04:00.073Z,14.25
2023-12-14T09:06:27.552Z,13.38
2023-12-14T09:08:54.907Z,14.02
2023-12-14T09:11:22.360Z,14.63
2023-12-14T09:13:49.877Z,17.15
2023-12-14T09:16:17.196Z,14.68
2023-12-14T09:18:44.655Z,15.43
2023-12-14T09:21:12.102Z,15.45
2023-12-14T09:23:39.433Z,14.90
2023-12-14T09:26:06.914Z,16.20
2023-12-14T09:28:34.384Z,17.98
2023-12-14T09:31:01.949Z,16.52
2023-12-14T09:33:29.936Z,15.05
2023-12-14T09:35:58.146Z,15.07
2023-12-14T09:38:25.909Z,13.60
2023-12-14T09:40:53.371Z,13.55
2023-12-14T09:43:22.073Z,13.73
2023-12-14T09:45:51.165Z,11.23
2023-12-14T09:48:18.789Z,13.25
2023-12-14T09:50:47.785Z,12.50
2023-12-14T09:53:15.142Z,9.93
2023-12-14T09:55:42.523Z,11.32
2023-12-14T09:58:12.115Z,9.90
2023-12-14T10:00:42.795Z,11.00
2023-12-14T10:03:19.110Z,10.90
2023-12-14T10:05:48.211Z,11.30
2023-12-14T10:08:19.592Z,10.95
2023-12-14T10:10:53.722Z,10.48
2023-12-14T10:13:23.062Z,10.05
2023-12-14T10:15:51.074Z,9.35
2023-12-14T10:18:27.119Z,10.63
2023-12-14T10:20:54.632Z,11.18
2023-12-14T10:23:22.377Z,8.77
2023-12-14T10:25:51.784Z,8.80
2023-12-14T10:28:19.382Z,8.95
2023-12-14T10:30:47.038Z,9.48
2023-12-14T10:33:17.409Z,9.00
2023-12-14T10:35:47.244Z,10.15
2023-12-14T10:38:18.700Z,9.82
2023-12-14T10:40:47.600Z,9.40
2023-12-14T10:43:36.155Z,10.20
2023-12-14T10:46:10.813Z,9.48
2023-12-14T10:48:42.694Z,9.93
2023-12-14T10:51:12.650Z,9.15
2023-12-14T10:53:40.360Z,9.70
2023-12-14T10:56:11.953Z,10.07
2023-12-14T10:58:56.899Z,9.32
2023-12-14T11:01:25.388Z,9.85
2023-12-14T11:03:57.890Z,9.35
2023-12-14T11:06:34.666Z,9.65
2023-12-14T11:09:15.176Z,10.45
2023-12-14T11:11:54.779Z,9.38
2023-12-14T11:14:24.149Z,10.18
2023-12-14T11:16:55.551Z,9.88
2023-12-14T11:19:23.024Z,9.05
2023-12-14T11:22:11.130Z,10.25
2023-12-14T11:24:38.825Z,8.77
2023-12-14T11:27:07.901Z,9.27
2023-12-14T11:29:37.862Z,10.32
2023-12-14T11:32:07.967Z,8.63
2023-12-14T11:34:35.379Z,8.32
2023-12-14T11:37:02.890Z,8.55
2023-12-14T11:39:33.115Z,8.80
2023-12-14T11:42:05.355Z,8.90
2023-12-14T11:44:32.716Z,8.70
2023-12-14T11:47:00.299Z,9.05
2023-12-14T11:49:28.317Z,8.98
2023-12-14T11:51:57.315Z,9.55
2023-12-14T11:54:24.897Z,10.40
2023-12-14T11:56:52.364Z,10.65
2023-12-14T11:59:20.695Z,9.93
2023-12-14T12:02:01.624Z,13.10
2023-12-14T12:04:29.516Z,13.07
2023-12-14T12:07:17.952Z,12.90
2023-12-14T12:09:45.754Z,11.77
2023-12-14T12:12:14.196Z,11.55
2023-12-14T12:14:43.137Z,11.93
2023-12-14T12:17:11.106Z,10.10
2023-12-14T12:19:39.169Z,9.30
2023-12-14T12:22:06.586Z,10.80
2023-12-14T12:24:34.808Z,13.27
2023-12-14T12:27:02.683Z,12.73
2023-12-14T12:29:30.073Z,10.02
2023-12-14T12:31:57.779Z,10.98
2023-12-14T12:34:25.167Z,10.20
2023-12-14T12:36:52.574Z,9.27
2023-12-14T12:39:19.864Z,8.75
2023-12-14T12:41:47.209Z,7.50
2023-12-14T12:44:14.475Z,8.73
2023-12-14T12:46:42.388Z,10.23
2023-12-14T12:49:09.987Z,9.18
2023-12-14T12:51:37.319Z,8.20
2023-12-14T12:54:12.416Z,9.95
2023-12-14T12:56:41.325Z,7.90
2023-12-14T12:59:10.167Z,7.10
2023-12-14T13:01:38.367Z,9.40
2023-12-14T13:04:18.439Z,9.50
2023-12-14T13:06:45.760Z,8.35
2023-12-14T13:09:13.377Z,9.43
2023-12-14T13:11:40.989Z,7.28
2023-12-14T13:14:09.044Z,8.77
2023-12-14T13:16:37.278Z,8.90
2023-12-14T13:19:05.127Z,8.13
2023-12-14T13:21:32.573Z,7.30
2023-12-14T13:23:59.905Z,8.35
2023-12-14T13:26:27.365Z,8.18
2023-12-14T13:28:55.477Z,7.63
2023-12-14T13:31:23.033Z,6.60
2023-12-14T13:33:54.523Z,7.35
2023-12-14T13:36:21.854Z,8.80
2023-12-14T13:38:49.162Z,6.28
2023-12-14T13:41:16.603Z,6.63
2023-12-14T13:43:45.137Z,6.70
2023-12-14T13:46:19.705Z,7.45
2023-12-14T13:48:49.430Z,8.70
2023-12-14T13:51:16.829Z,6.95
2023-12-14T13:53:44.927Z,5.57
2023-12-14T13:56:12.323Z,7.53
2023-12-14T13:58:39.903Z,6.70
2023-12-14T14:01:10.364Z,6.70
2023-12-14T14:03:40.875Z,6.30
2023-12-14T14:06:08.712Z,7.45
2023-12-14T14:08:36.705Z,6.60
2023-12-14T14:11:04.444Z,6.78
2023-12-14T14:13:33.222Z,6.60
2023-12-14T14:16:00.725Z,7.63
2023-12-14T14:18:28.193Z,9.32
2023-12-14T14:20:56.002Z,6.10
2023-12-14T14:23:23.499Z,7.07
2023-12-14T14:25:55.179Z,7.22
2023-12-14T14:28:25.659Z,7.07
2023-12-14T14:30:53.844Z,8.02
2023-12-14T14:33:21.444Z,8.95
2023-12-14T14:35:50.201Z,8.80
2023-12-14T14:38:19.827Z,7.43
2023-12-14T14:40:47.297Z,7.72
2023-12-14T14:43:15.318Z,7.15
2023-12-14T14:45:43.674Z,6.10
2023-12-14T14:48:11.334Z,7.15
2023-12-14T14:50:39.100Z,8.15
2023-12-14T14:53:06.706Z,7.05
2023-12-14T14:55:34.519Z,7.38
2023-12-14T14:58:01.835Z,6.07
2023-12-14T15:00:29.315Z,7.18
2023-12-14T15:02:56.902Z,6.75
2023-12-14T15:05:24.309Z,6.57
2023-12-14T15:07:51.794Z,6.63
2023-12-14T15:10:19.159Z,7.20
2023-12-14T15:12:46.463Z,7.00
2023-12-14T15:15:13.891Z,6.47
2023-12-14T15:17:41.388Z,6.55
2023-12-14T15:20:09.269Z,6.38
2023-12-14T15:22:36.923Z,6.65
2023-12-14T15:25:05.484Z,7.05
2023-12-14T15:27:34.026Z,6.47
2023-12-14T15:30:01.698Z,6.63
2023-12-14T15:32:29.076Z,6.78
2023-12-14T15:34:56.480Z,6.05
2023-12-14T15:37:23.748Z,6.97
2023-12-14T15:39:51.056Z,7.68
2023-12-14T15:42:18.465Z,6.78
2023-12-14T15:44:45.916Z,8.20
2023-12-14T15:47:14.195Z,6.03
2023-12-14T15:49:46.340Z,6.15
2023-12-14T15:52:13.857Z,6.17
2023-12-14T15:54:41.378Z,7.13
2023-12-14T15:57:08.771Z,8.07
2023-12-14T15:59:36.102Z,7.25
2023-12-14T16:02:03.993Z,6.65
2023-12-14T16:04:31.317Z,6.32
2023-12-14T16:06:59.713Z,8.32
2023-12-14T16:09:27.039Z,6.97
2023-12-14T16:11:54.306Z,8.23
2023-12-14T16:14:21.655Z,6.53
2023-12-14T16:16:49.037Z,8.00
2023-12-14T16:19:16.674Z,7.10
2023-12-14T16:21:44.039Z,8.63
2023-12-14T16:24:11.507Z,8.88
2023-12-14T16:26:42.695Z,7.53
2023-12-14T16:29:10.347Z,8.30
2023-12-14T16:31:43.838Z,8.43
2023-12-14T16:34:11.433Z,8.73
2023-12-14T16:36:39.019Z,7.68
2023-12-14T16:39:07.705Z,7.85
2023-12-14T16:41:34.971Z,9.43
2023-12-14T16:44:02.335Z,8.30
2023-12-14T16:46:29.622Z,10.35
2023-12-14T16:48:57.014Z,10.40
2023-12-14T16:51:26.097Z,10.38
2023-12-14T16:53:53.438Z,10.30
2023-12-14T16:56:20.794Z,10.15
2023-12-14T16:58:48.235Z,9.13
2023-12-14T17:01:16.466Z,10.73
2023-12-14T17:03:43.767Z,11.18
2023-12-14T17:06:14.641Z,8.48
2023-12-14T17:08:42.070Z,12.00
2023-12-14T17:11:10.834Z,11.23
2023-12-14T17:13:38.607Z,11.57
2023-12-14T17:16:16.549Z,10.02
2023-12-14T17:18:44.931Z,9.68
2023-12-14T17:21:27.084Z,10.52
2023-12-14T17:23:55.670Z,11.20
2023-12-14T17:26:26.816Z,10.23
2023-12-14T17:28:57.205Z,10.10
2023-12-14T17:31:25.961Z,9.98
2023-12-14T17:33:54.460Z,10.13
2023-12-14T17:36:21.963Z,10.10
2023-12-14T17:38:51.328Z,10.25
2023-12-14T17:41:19.101Z,9.55
2023-12-14T17:43:46.690Z,10.15
2023-12-14T17:46:22.100Z,9.50
2023-12-14T17:48:49.707Z,10.85
2023-12-14T17:51:17.238Z,9.63
2023-12-14T17:53:44.803Z,9.48
2023-12-14T17:56:12.853Z,11.10
2023-12-14T17:58:42.164Z,9.55
2023-12-14T18:01:09.631Z,10.73
2023-12-14T18:03:37.228Z,9.30
2023-12-14T18:06:05.157Z,10.43
2023-12-14T18:08:32.657Z,9.52
2023-12-14T18:11:00.260Z,10.02
2023-12-14T18:13:28.149Z,9.18
2023-12-14T18:15:55.943Z,10.25
2023-12-14T18:18:23.759Z,11.10
2023-12-14T18:20:51.681Z,10.60
2023-12-14T18:23:19.514Z,10.23
2023-12-14T18:25:49.173Z,10.35
2023-12-14T18:28:19.197Z,10.00
2023-12-14T18:30:47.676Z,10.25
2023-12-14T18:33:15.489Z,10.63
2023-12-14T18:35:43.706Z,11.43
2023-12-14T18:38:11.341Z,11.15
2023-12-14T18:40:38.708Z,11.07
2023-12-14T18:43:06.231Z,10.32
2023-12-14T18:45:34.020Z,10.95
2023-12-14T18:48:01.482Z,11.45
2023-12-14T18:50:28.948Z,12.15
2023-12-14T18:52:58.874Z,11.52
2023-12-14T18:55:26.530Z,10.05
2023-12-14T18:57:55.319Z,9.52
2023-12-14T19:00:22.823Z,11.07
2023-12-14T19:02:50.117Z,10.30
2023-12-14T19:05:21.948Z,11.18
2023-12-14T19:07:49.444Z,10.13
2023-12-14T19:10:17.426Z,10.25
2023-12-14T19:12:44.872Z,11.73
2023-12-14T19:15:12.269Z,9.90
2023-12-14T19:17:41.621Z,10.27
2023-12-14T19:20:11.726Z,11.13
2023-12-14T19:22:42.111Z,10.90
2023-12-14T19:25:11.802Z,12.50
2023-12-14T19:27:40.218Z,10.50
2023-12-14T19:30:10.349Z,10.25
2023-12-14T19:32:38.026Z,11.23
2023-12-14T19:35:06.147Z,10.93
2023-12-14T19:37:34.084Z,9.77
2023-12-14T19:40:03.896Z,10.65
2023-12-14T19:42:34.097Z,12.05
2023-12-14T19:45:01.718Z,10.02
2023-12-14T19:47:29.163Z,10.00
2023-12-14T19:50:01.004Z,8.73
2023-12-14T19:52:31.743Z,8.90
2023-12-14T19:55:00.469Z,9.60
2023-12-14T19:57:30.488Z,9.50
2023-12-14T19:59:58.001Z,9.82
2023-12-14T20:02:30.475Z,8.45
2023-12-14T20:04:59.048Z,9.75
2023-12-14T20:07:30.965Z,10.95
2023-12-14T20:10:05.221Z,12.02
2023-12-14T20:12:35.888Z,10.68
2023-12-14T20:15:06.774Z,14.35
2023-12-14T20:17:42.620Z,12.80
2023-12-14T20:20:17.962Z,11.55
2023-12-14T20:22:47.727Z,11.93
2023-12-14T20:25:17.256Z,11.68
2023-12-14T20:27:46.718Z,10.63
2023-12-14T20:30:21.064Z,12.88
2023-12-14T20:32:52.716Z,12.45
2023-12-14T20:35:24.852Z,11.70
2023-12-14T20:37:53.101Z,13.73
2023-12-14T20:40:24.478Z,13.77
2023-12-14T20:42:54.082Z,15.50
2023-12-14T20:45:21.537Z,14.40
2023-12-14T20:47:50.347Z,18.17
2023-12-14T20:50:18.726Z,13.18
2023-12-14T20:52:48.183Z,16.27
2023-12-14T20:55:16.735Z,12.60
2023-12-14T20:57:44.650Z,15.77
2023-12-14T21:00:12.329Z,11.93
2023-12-14T21:02:40.936Z,13.55
2023-12-14T21:05:08.997Z,16.50
2023-12-14T21:07:37.118Z,13.95
2023-12-14T21:10:04.873Z,14.40
2023-12-14T21:12:32.182Z,12.07
2023-12-14T21:14:59.608Z,14.13
2023-12-14T21:17:27.072Z,13.70
2023-12-14T21:19:54.693Z,13.55
2023-12-14T21:22:22.182Z,13.18
2023-12-14T21:24:50.639Z,13.05
2023-12-14T21:27:36.752Z,13.05
2023-12-14T21:30:04.720Z,15.27
2023-12-14T21:32:32.115Z,11.77
2023-12-14T21:34:59.559Z,13.13
2023-12-14T21:37:27.046Z,12.48
2023-12-14T21:39:54.398Z,13.05
2023-12-14T21:42:22.026Z,12.00
2023-12-14T21:44:49.429Z,14.07
2023-12-14T21:47:16.876Z,11.50
2023-12-14T21:49:44.178Z,12.98
2023-12-14T21:52:11.556Z,11.68
2023-12-14T21:54:38.838Z,11.75
2023-12-14T21:57:06.230Z,11.32
2023-12-14T21:59:33.836Z,11.20
2023-12-14T22:02:01.222Z,10.23
2023-12-14T22:04:28.805Z,9.30
2023-12-14T22:06:57.986Z,11.93
2023-12-14T22:09:25.274Z,9.80
2023-12-14T22:11:52.565Z,10.63
2023-12-14T22:14:19.975Z,9.88
2023-12-14T22:16:50.979Z,10.50
2023-12-14T22:19:18.954Z,10.77
2023-12-14T22:21:46.467Z,10.75
2023-12-14T22:24:13.812Z,9.57
2023-12-14T22:26:41.150Z,11.75
2023-12-14T22:29:08.570Z,9.73
2023-12-14T22:31:35.961Z,10.93
2023-12-14T22:34:03.276Z,9.65
2023-12-14T22:36:30.583Z,11.13
2023-12-14T22:38:57.872Z,11.32
2023-12-14T22:41:25.215Z,11.27
2023-12-14T22:43:52.569Z,9.55
2023-12-14T22:46:19.989Z,9.25
2023-12-14T22:48:47.636Z,8.40
2023-12-14T22:51:19.108Z,9.40
2023-12-14T22:53:47.150Z,9.00
2023-12-14T22:56:25.459Z,11.23
2023-12-14T22:58:53.096Z,10.40
2023-12-14T23:01:31.939Z,10.65
2023-12-14T23:04:00.561Z,8.80
2023-12-14T23:06:28.026Z,9.23
2023-12-14T23:08:55.650Z,9.82
2023-12-14T23:11:23.194Z,8.43
2023-12-14T23:13:50.890Z,10.73
2023-12-14T23:16:18.438Z,9.38
2023-12-14T23:18:45.997Z,8.82
2023-12-14T23:21:13.572Z,8.32
2023-12-14T23:23:40.962Z,9.23
2023-12-14T23:26:08.481Z,9.60
2023-12-14T23:28:35.933Z,9.32
2023-12-14T23:31:03.613Z,10.23
2023-12-14T23:33:31.085Z,8.95
2023-12-14T23:35:58.381Z,8.18
2023-12-14T23:38:25.978Z,10.70
2023-12-14T23:40:53.583Z,8.27
2023-12-14T23:43:20.962Z,8.02
2023-12-14T23:45:48.317Z,10.07
2023-12-14T23:48:15.815Z,9.32
2023-12-14T23:50:43.236Z,8.57
2023-12-14T23:53:10.685Z,9.98
2023-12-14T23:55:40.492Z,7.57
2023-12-14T23:58:08.016Z,8.63
